createdAt,value
2022-07-29T00:01:05.627Z,50.30
2022-07-29T00:03:33.136Z,50.48
2022-07-29T00:06:00.898Z,50.56
2022-07-29T00:08:28.156Z,50.99
2022-07-29T00:10:55.535Z,50.43
2022-07-29T00:13:32.249Z,50.45
2022-07-29T00:16:04.558Z,50.66
2022-07-29T00:18:32.969Z,51.29
2022-07-29T00:21:00.625Z,50.69
2022-07-29T00:23:27.809Z,50.86
2022-07-29T00:25:54.968Z,51.66
2022-07-29T00:28:22.359Z,51.49
2022-07-29T00:30:49.432Z,50.95
2022-07-29T00:33:16.536Z,51.21
2022-07-29T00:35:47.319Z,51.16
2022-07-29T00:38:15.878Z,51.33
2022-07-29T00:40:44.342Z,51.53
2022-07-29T00:43:13.464Z,52.05
2022-07-29T00:45:41.211Z,52.36
2022-07-29T00:48:09.719Z,51.79
2022-07-29T00:50:37.544Z,52.79
2022-07-29T00:53:06.450Z,52.44
2022-07-29T00:55:34.096Z,51.99
2022-07-29T00:58:01.432Z,51.97
2022-07-29T01:00:31.576Z,51.99
2022-07-29T01:02:59.664Z,52.21
2022-07-29T01:05:49.814Z,52.80
2022-07-29T01:08:16.560Z,52.57
2022-07-29T01:10:44.128Z,52.78
2022-07-29T01:13:11.636Z,53.02
2022-07-29T01:15:49.275Z,52.37
2022-07-29T01:18:37.082Z,52.82
2022-07-29T01:21:26.832Z,52.28
2022-07-29T01:24:12.936Z,52.27
2022-07-29T01:26:43.604Z,51.99
2022-07-29T01:29:36.255Z,52.43
2022-07-29T01:32:28.864Z,52.38
2022-07-29T01:35:20.309Z,52.52
2022-07-29T01:38:02.940Z,52.87
2022-07-29T01:40:44.488Z,52.33
2022-07-29T01:43:15.468Z,53.14
2022-07-29T01:45:54.332Z,52.30
2022-07-29T01:48:32.178Z,52.67
2022-07-29T01:51:14.490Z,52.17
2022-07-29T01:53:45.746Z,53.02
2022-07-29T01:56:14.613Z,52.27
2022-07-29T01:58:42.862Z,52.72
2022-07-29T02:01:10.958Z,53.78
2022-07-29T02:03:39.151Z,53.09
2022-07-29T02:06:08.346Z,53.76
2022-07-29T02:08:36.998Z,54.11
2022-07-29T02:11:05.558Z,53.94
2022-07-29T02:13:33.286Z,54.16
2022-07-29T02:16:01.656Z,54.86
2022-07-29T02:18:29.674Z,53.28
2022-07-29T02:20:57.953Z,54.55
2022-07-29T02:23:25.518Z,55.64
2022-07-29T02:25:56.532Z,54.29
2022-07-29T02:28:25.829Z,56.32
2022-07-29T02:30:54.775Z,54.30
2022-07-29T02:33:22.566Z,55.11
2022-07-29T02:35:49.893Z,54.51
2022-07-29T02:38:36.700Z,54.41
2022-07-29T02:41:09.270Z,54.10
2022-07-29T02:43:36.978Z,57.02
2022-07-29T02:46:06.045Z,56.49
2022-07-29T02:49:09.584Z,55.16
2022-07-29T02:51:56.394Z,54.52
2022-07-29T02:54:28.833Z,54.86
2022-07-29T02:56:58.808Z,55.41
2022-07-29T02:59:29.025Z,55.27
2022-07-29T03:01:57.039Z,55.39
2022-07-29T03:04:26.428Z,56.17
2022-07-29T03:06:54.236Z,55.08
2022-07-29T03:09:22.133Z,55.69
2022-07-29T03:11:51.050Z,57.28
2022-07-29T03:14:20.545Z,55.38
2022-07-29T03:16:48.426Z,56.87
2022-07-29T03:19:15.844Z,55.74
2022-07-29T03:21:43.334Z,56.17
2022-07-29T03:24:11.070Z,55.91
2022-07-29T03:26:38.387Z,55.87
2022-07-29T03:29:05.908Z,55.64
2022-07-29T03:31:34.283Z,55.76
2022-07-29T03:34:01.441Z,55.79
2022-07-29T03:36:28.809Z,56.05
2022-07-29T03:38:56.066Z,55.99
2022-07-29T03:41:23.766Z,56.23
2022-07-29T03:43:52.990Z,56.54
2022-07-29T03:46:22.406Z,56.80
2022-07-29T03:48:52.093Z,56.50
2022-07-29T03:51:19.907Z,56.39
2022-07-29T03:54:07.892Z,56.76
2022-07-29T03:56:40.957Z,57.11
2022-07-29T03:59:08.434Z,56.91
2022-07-29T04:01:36.119Z,56.53
2022-07-29T04:04:04.882Z,57.04
2022-07-29T04:06:41.954Z,56.57
2022-07-29T04:09:10.106Z,56.97
2022-07-29T04:12:01.795Z,56.81
2022-07-29T04:14:26.620Z,56.50
2022-07-29T04:16:54.120Z,56.50
2022-07-29T04:19:21.264Z,56.24
2022-07-29T04:21:48.667Z,56.55
2022-07-29T04:24:16.147Z,56.50
2022-07-29T04:26:43.713Z,56.81
2022-07-29T04:29:12.936Z,56.83
2022-07-29T04:31:40.115Z,56.21
2022-07-29T04:34:07.724Z,55.79
2022-07-29T04:36:38.080Z,56.03
2022-07-29T04:39:05.437Z,55.77
2022-07-29T04:41:33.129Z,55.73
2022-07-29T04:44:06.930Z,55.89
2022-07-29T04:46:35.257Z,55.82
2022-07-29T04:49:04.029Z,56.25
2022-07-29T04:51:31.392Z,55.93
2022-07-29T04:53:58.535Z,55.07
2022-07-29T04:56:26.062Z,55.10
2022-07-29T04:58:53.300Z,54.29
2022-07-29T05:01:20.803Z,53.47
2022-07-29T05:03:48.329Z,52.52
2022-07-29T05:06:15.570Z,52.19
2022-07-29T05:08:42.700Z,51.91
2022-07-29T05:11:11.485Z,53.83
2022-07-29T05:13:46.025Z,51.82
2022-07-29T05:16:15.120Z,51.62
2022-07-29T05:18:43.289Z,51.76
2022-07-29T05:21:10.554Z,51.99
2022-07-29T05:23:37.937Z,51.29
2022-07-29T05:26:05.083Z,51.55
2022-07-29T05:28:38.892Z,50.91
2022-07-29T05:31:06.391Z,50.72
2022-07-29T05:33:35.270Z,49.94
2022-07-29T05:36:08.338Z,50.05
2022-07-29T05:38:36.865Z,51.37
2022-07-29T05:41:05.303Z,49.26
2022-07-29T05:43:33.025Z,48.98
2022-07-29T05:46:00.631Z,48.98
2022-07-29T05:48:27.903Z,48.39
2022-07-29T05:50:55.467Z,48.08
2022-07-29T05:53:23.358Z,47.86
2022-07-29T05:55:50.661Z,48.07
2022-07-29T05:58:17.747Z,47.31
2022-07-29T06:00:45.482Z,46.74
2022-07-29T06:03:13.359Z,46.48
2022-07-29T06:05:40.937Z,46.30
2022-07-29T06:08:08.573Z,46.22
2022-07-29T06:10:36.795Z,45.62
2022-07-29T06:13:04.242Z,45.75
2022-07-29T06:15:31.518Z,45.13
2022-07-29T06:18:00.427Z,44.75
2022-07-29T06:20:32.711Z,44.36
2022-07-29T06:23:00.954Z,43.42
2022-07-29T06:25:31.789Z,44.29
2022-07-29T06:27:59.027Z,43.67
2022-07-29T06:30:29.852Z,43.74
2022-07-29T06:32:57.050Z,43.22
2022-07-29T06:35:38.973Z,43.55
2022-07-29T06:38:25.153Z,43.79
2022-07-29T06:41:04.677Z,43.35
2022-07-29T06:43:50.428Z,43.40
2022-07-29T06:46:20.318Z,43.32
2022-07-29T06:48:51.275Z,43.38
2022-07-29T06:51:22.760Z,44.14
2022-07-29T06:53:58.174Z,44.72
2022-07-29T06:56:29.329Z,45.39
2022-07-29T06:58:56.792Z,44.44
2022-07-29T07:01:24.030Z,43.95
2022-07-29T07:03:51.331Z,43.85
2022-07-29T07:06:18.832Z,43.23
2022-07-29T07:08:45.963Z,42.80
2022-07-29T07:11:13.159Z,42.21
2022-07-29T07:13:40.613Z,41.80
2022-07-29T07:16:07.736Z,42.50
2022-07-29T07:18:34.873Z,41.65
2022-07-29T07:21:02.324Z,41.30
2022-07-29T07:23:29.383Z,40.88
2022-07-29T07:25:56.462Z,41.43
2022-07-29T07:28:24.635Z,40.38
2022-07-29T07:30:53.090Z,40.32
2022-07-29T07:33:20.322Z,41.94
2022-07-29T07:35:48.073Z,39.67
2022-07-29T07:38:15.160Z,39.29
2022-07-29T07:40:42.733Z,39.20
2022-07-29T07:43:10.149Z,39.30
2022-07-29T07:45:38.460Z,38.75
2022-07-29T07:48:06.134Z,39.39
2022-07-29T07:50:33.630Z,38.59
2022-07-29T07:53:03.152Z,38.34
2022-07-29T07:55:42.458Z,39.41
2022-07-29T07:58:17.822Z,38.16
2022-07-29T08:00:45.075Z,38.48
2022-07-29T08:03:16.828Z,37.34
2022-07-29T08:05:45.019Z,37.78
2022-07-29T08:08:12.441Z,36.59
2022-07-29T08:10:57.122Z,36.61
2022-07-29T08:13:26.662Z,36.38
2022-07-29T08:16:01.234Z,36.32
2022-07-29T08:18:30.587Z,35.88
2022-07-29T08:20:58.499Z,35.79
2022-07-29T08:23:32.820Z,35.66
2022-07-29T08:26:13.948Z,35.91
2022-07-29T08:28:46.853Z,35.65
2022-07-29T08:31:15.058Z,35.61
2022-07-29T08:33:42.901Z,35.39
2022-07-29T08:36:10.663Z,34.93
2022-07-29T08:38:38.120Z,34.59
2022-07-29T08:41:05.753Z,35.08
2022-07-29T08:43:33.167Z,36.11
2022-07-29T08:46:01.625Z,34.74
2022-07-29T08:48:28.773Z,34.33
2022-07-29T08:50:57.427Z,33.73
2022-07-29T08:53:27.793Z,33.57
2022-07-29T08:55:55.743Z,33.48
2022-07-29T08:58:24.711Z,34.07
2022-07-29T09:00:56.439Z,33.57
2022-07-29T09:03:26.742Z,33.41
2022-07-29T09:05:54.596Z,33.44
2022-07-29T09:08:22.208Z,33.31
2022-07-29T09:10:50.243Z,33.32
2022-07-29T09:13:17.899Z,34.83
2022-07-29T09:15:45.779Z,33.75
2022-07-29T09:18:19.478Z,32.96
2022-07-29T09:21:17.306Z,32.63
2022-07-29T09:24:12.780Z,33.07
2022-07-29T09:26:44.594Z,32.54
2022-07-29T09:29:13.806Z,32.60
2022-07-29T09:31:43.769Z,33.02
2022-07-29T09:34:14.644Z,32.62
2022-07-29T09:36:49.958Z,32.97
2022-07-29T09:39:28.708Z,31.90
2022-07-29T09:41:58.365Z,30.75
2022-07-29T09:44:27.091Z,30.57
2022-07-29T09:47:09.447Z,31.09
2022-07-29T09:49:53.418Z,30.26
2022-07-29T09:52:20.735Z,30.10
2022-07-29T09:54:48.534Z,30.29
2022-07-29T09:57:30.803Z,30.24
2022-07-29T10:00:02.425Z,30.21
2022-07-29T10:02:40.830Z,29.05
2022-07-29T10:05:26.876Z,29.76
2022-07-29T10:08:03.741Z,29.28
2022-07-29T10:10:34.830Z,29.45
2022-07-29T10:13:11.029Z,29.83
2022-07-29T10:15:47.415Z,29.14
2022-07-29T10:18:15.663Z,27.88
2022-07-29T10:20:43.152Z,27.91
2022-07-29T10:23:10.689Z,28.02
2022-07-29T10:25:38.019Z,27.95
2022-07-29T10:28:06.678Z,27.46
2022-07-29T10:30:33.860Z,27.08
2022-07-29T10:33:19.617Z,28.29
2022-07-29T10:36:19.513Z,27.12
2022-07-29T10:39:11.191Z,27.36
2022-07-29T10:42:13.167Z,26.46
2022-07-29T10:44:44.679Z,26.08
2022-07-29T10:47:22.236Z,25.69
2022-07-29T10:50:01.296Z,25.25
2022-07-29T10:52:50.916Z,25.33
2022-07-29T10:55:43.219Z,25.33
2022-07-29T10:58:19.541Z,25.81
2022-07-29T11:00:49.377Z,25.12
2022-07-29T11:03:50.719Z,24.53
2022-07-29T11:06:26.319Z,23.71
2022-07-29T11:09:18.366Z,23.37
2022-07-29T11:11:51.517Z,22.72
2022-07-29T11:14:53.444Z,24.54
2022-07-29T11:17:20.649Z,24.68
2022-07-29T11:19:51.970Z,25.22
2022-07-29T11:22:36.054Z,24.69
2022-07-29T11:25:17.390Z,24.27
2022-07-29T11:27:48.051Z,24.03
2022-07-29T11:30:15.566Z,24.69
2022-07-29T11:32:45.054Z,24.47
2022-07-29T11:35:38.500Z,24.63
2022-07-29T11:38:23.723Z,24.16
2022-07-29T11:41:27.324Z,22.91
2022-07-29T11:43:56.430Z,22.21
2022-07-29T11:46:43.971Z,21.83
2022-07-29T11:49:11.652Z,21.25
2022-07-29T11:51:48.099Z,21.63
2022-07-29T11:54:18.248Z,20.98
2022-07-29T11:56:55.040Z,20.44
2022-07-29T11:59:22.296Z,19.67
2022-07-29T12:02:25.522Z,19.87
2022-07-29T12:04:55.384Z,20.63
2022-07-29T12:07:35.040Z,20.63
2022-07-29T12:10:04.623Z,20.04
2022-07-29T12:12:34.736Z,19.42
2022-07-29T12:15:14.251Z,19.21
2022-07-29T12:17:43.066Z,18.57
2022-07-29T12:20:10.336Z,19.29
2022-07-29T12:22:44.465Z,18.58
2022-07-29T12:25:32.974Z,17.64
2022-07-29T12:28:02.679Z,17.88
2022-07-29T12:30:41.805Z,19.22
2022-07-29T12:33:16.369Z,20.15
2022-07-29T12:35:58.056Z,20.98
2022-07-29T12:38:30.971Z,21.11
2022-07-29T12:40:58.657Z,20.67
2022-07-29T12:43:26.567Z,20.43
2022-07-29T12:45:55.584Z,20.82
2022-07-29T12:48:41.050Z,21.83
2022-07-29T12:51:09.840Z,22.09
2022-07-29T12:53:37.670Z,20.69
2022-07-29T12:56:20.579Z,20.63
2022-07-29T12:58:51.313Z,19.73
2022-07-29T13:01:20.984Z,19.39
2022-07-29T13:04:01.519Z,19.65
2022-07-29T13:06:49.609Z,20.07
2022-07-29T13:09:20.727Z,21.80
2022-07-29T13:11:50.373Z,21.25
2022-07-29T13:14:33.595Z,20.44
2022-07-29T13:17:08.781Z,19.31
2022-07-29T13:19:37.422Z,18.45
2022-07-29T13:22:05.361Z,18.85
2022-07-29T13:24:32.461Z,18.51
2022-07-29T13:27:00.409Z,17.68
2022-07-29T13:29:31.464Z,16.76
2022-07-29T13:31:59.426Z,16.22
2022-07-29T13:34:26.898Z,16.60
2022-07-29T13:36:54.476Z,16.40
2022-07-29T13:39:21.593Z,15.97
2022-07-29T13:41:48.667Z,16.11
2022-07-29T13:44:16.645Z,16.08
2022-07-29T13:46:43.707Z,16.29
2022-07-29T13:49:12.336Z,16.03
2022-07-29T13:51:39.949Z,15.90
2022-07-29T13:54:07.014Z,16.07
2022-07-29T13:56:35.071Z,16.00
2022-07-29T13:59:02.773Z,15.28
2022-07-29T14:01:31.389Z,15.30
2022-07-29T14:03:58.898Z,15.70
2022-07-29T14:06:26.019Z,15.92
2022-07-29T14:08:53.103Z,16.05
2022-07-29T14:11:20.819Z,15.95
2022-07-29T14:13:47.941Z,16.55
2022-07-29T14:16:16.069Z,16.49
2022-07-29T14:18:43.616Z,16.89
2022-07-29T14:21:10.738Z,16.92
2022-07-29T14:23:38.314Z,16.26
2022-07-29T14:26:15.815Z,16.76
2022-07-29T14:28:44.752Z,16.24
2022-07-29T14:31:12.178Z,15.83
2022-07-29T14:33:39.470Z,16.40
2022-07-29T14:36:06.581Z,15.84
2022-07-29T14:38:33.961Z,16.53
2022-07-29T14:41:01.753Z,16.57
2022-07-29T14:43:30.017Z,16.49
2022-07-29T14:46:02.886Z,16.58
2022-07-29T14:48:31.219Z,16.93
2022-07-29T14:51:04.578Z,16.95
2022-07-29T14:53:32.838Z,17.43
2022-07-29T14:56:10.326Z,16.98
2022-07-29T14:58:49.170Z,16.95
2022-07-29T15:01:19.619Z,17.34
2022-07-29T15:03:46.835Z,17.56
2022-07-29T15:06:13.988Z,18.19
2022-07-29T15:08:41.528Z,17.92
2022-07-29T15:11:08.844Z,18.69
2022-07-29T15:13:36.022Z,18.92
2022-07-29T15:16:03.669Z,19.83
2022-07-29T15:18:31.067Z,19.34
2022-07-29T15:20:59.206Z,19.53
2022-07-29T15:23:26.562Z,19.55
2022-07-29T15:25:53.653Z,19.62
2022-07-29T15:28:20.739Z,20.24
2022-07-29T15:30:48.263Z,20.02
2022-07-29T15:33:15.328Z,21.11
2022-07-29T15:35:42.405Z,20.73
2022-07-29T15:38:09.802Z,20.18
2022-07-29T15:40:39.071Z,20.92
2022-07-29T15:43:06.881Z,21.08
2022-07-29T15:45:40.370Z,21.33
2022-07-29T15:48:09.189Z,21.84
2022-07-29T15:50:36.591Z,22.15
2022-07-29T15:53:03.960Z,22.17
2022-07-29T15:55:31.074Z,22.70
2022-07-29T15:58:00.665Z,23.28
2022-07-29T16:00:28.120Z,23.98
2022-07-29T16:02:56.888Z,24.21
2022-07-29T16:05:24.064Z,24.83
2022-07-29T16:07:51.151Z,25.02
2022-07-29T16:10:18.557Z,25.05
2022-07-29T16:12:45.658Z,25.04
2022-07-29T16:15:12.834Z,25.06
2022-07-29T16:17:40.261Z,25.09
2022-07-29T16:20:08.135Z,25.36
2022-07-29T16:22:35.249Z,24.73
2022-07-29T16:25:03.011Z,24.50
2022-07-29T16:27:31.328Z,25.07
2022-07-29T16:30:06.970Z,25.08
2022-07-29T16:32:34.617Z,24.81
2022-07-29T16:35:02.958Z,25.06
2022-07-29T16:37:33.754Z,25.98
2022-07-29T16:40:01.581Z,26.96
2022-07-29T16:42:45.529Z,27.07
2022-07-29T16:45:15.065Z,27.13
2022-07-29T16:47:42.577Z,27.22
2022-07-29T16:50:09.820Z,27.41
2022-07-29T16:52:38.215Z,27.60
2022-07-29T16:55:05.913Z,27.38
2022-07-29T16:57:33.142Z,27.60
2022-07-29T17:00:00.537Z,27.97
2022-07-29T17:02:27.727Z,28.12
2022-07-29T17:04:55.029Z,28.32
2022-07-29T17:07:22.467Z,28.42
2022-07-29T17:09:53.846Z,28.80
2022-07-29T17:12:22.756Z,28.92
2022-07-29T17:14:49.839Z,29.25
2022-07-29T17:17:20.923Z,29.41
2022-07-29T17:20:05.557Z,29.55
2022-07-29T17:22:32.733Z,29.87
2022-07-29T17:24:59.804Z,29.91
2022-07-29T17:27:28.391Z,30.04
2022-07-29T17:29:55.552Z,30.09
2022-07-29T17:32:22.677Z,30.50
2022-07-29T17:34:50.297Z,30.49
2022-07-29T17:37:17.438Z,30.70
2022-07-29T17:39:44.613Z,30.93
2022-07-29T17:42:13.938Z,31.12
2022-07-29T17:44:41.511Z,31.29
2022-07-29T17:47:15.554Z,31.83
2022-07-29T17:49:45.071Z,32.04
2022-07-29T17:52:12.179Z,32.40
2022-07-29T17:54:39.253Z,32.70
2022-07-29T17:57:06.680Z,33.06
2022-07-29T17:59:33.754Z,33.24
2022-07-29T18:02:03.817Z,33.25
2022-07-29T18:04:31.591Z,33.55
2022-07-29T18:06:58.894Z,33.90
2022-07-29T18:09:26.172Z,34.06
2022-07-29T18:11:53.529Z,34.32
2022-07-29T18:14:20.681Z,34.55
2022-07-29T18:16:47.783Z,34.70
2022-07-29T18:19:16.171Z,35.58
2022-07-29T18:21:51.039Z,35.97
2022-07-29T18:24:27.531Z,36.23
2022-07-29T18:26:54.815Z,36.63
2022-07-29T18:29:22.373Z,36.88
2022-07-29T18:31:50.133Z,37.15
2022-07-29T18:34:17.342Z,37.15
2022-07-29T18:36:45.851Z,37.04
2022-07-29T18:39:20.619Z,36.99
2022-07-29T18:41:51.272Z,36.95
2022-07-29T18:44:22.101Z,37.01
2022-07-29T18:46:51.860Z,37.08
2022-07-29T18:49:19.573Z,37.70
2022-07-29T18:51:46.902Z,37.57
2022-07-29T18:54:14.481Z,37.51
2022-07-29T18:56:41.608Z,37.31
2022-07-29T18:59:08.754Z,37.56
2022-07-29T19:01:37.839Z,37.62
2022-07-29T19:04:05.308Z,37.50
2022-07-29T19:06:32.403Z,37.33
2022-07-29T19:09:00.173Z,37.69
2022-07-29T19:11:27.377Z,37.82
2022-07-29T19:13:54.479Z,37.81
2022-07-29T19:16:21.896Z,38.01
2022-07-29T19:18:49.111Z,38.02
2022-07-29T19:21:16.195Z,38.05
2022-07-29T19:24:01.548Z,38.12
2022-07-29T19:26:36.298Z,37.82
2022-07-29T19:29:04.362Z,37.90
2022-07-29T19:31:31.650Z,38.39
2022-07-29T19:33:59.230Z,38.39
2022-07-29T19:36:27.331Z,38.47
2022-07-29T19:38:54.496Z,38.61
2022-07-29T19:41:21.610Z,41.05
2022-07-29T19:43:50.530Z,42.15
2022-07-29T19:46:21.591Z,41.53
2022-07-29T19:48:49.952Z,40.12
2022-07-29T19:51:17.464Z,40.09
2022-07-29T19:53:44.561Z,39.99
2022-07-29T19:56:12.051Z,40.16
2022-07-29T19:58:40.798Z,40.61
2022-07-29T20:01:10.340Z,40.81
2022-07-29T20:03:41.124Z,40.98
2022-07-29T20:06:08.602Z,40.95
2022-07-29T20:08:35.837Z,40.99
2022-07-29T20:11:03.458Z,40.87
2022-07-29T20:13:33.054Z,40.97
2022-07-29T20:16:01.221Z,41.62
2022-07-29T20:18:28.686Z,41.74
2022-07-29T20:20:57.478Z,42.28
2022-07-29T20:23:24.643Z,41.55
2022-07-29T20:25:52.041Z,42.01
2022-07-29T20:28:21.178Z,41.97
2022-07-29T20:30:48.537Z,42.70
2022-07-29T20:33:16.700Z,42.20
2022-07-29T20:35:43.908Z,42.20
2022-07-29T20:38:13.933Z,42.25
2022-07-29T20:40:45.539Z,43.48
2022-07-29T20:43:12.696Z,42.73
2022-07-29T20:45:39.956Z,46.44
2022-07-29T20:48:08.328Z,46.05
2022-07-29T20:50:35.972Z,45.80
2022-07-29T20:53:03.264Z,48.17
2022-07-29T20:55:32.057Z,46.55
2022-07-29T20:57:59.251Z,45.64
2022-07-29T21:00:26.468Z,44.76
2022-07-29T21:02:54.112Z,45.68
2022-07-29T21:05:21.269Z,45.05
2022-07-29T21:07:48.400Z,45.28
2022-07-29T21:10:18.207Z,46.19
2022-07-29T21:12:48.292Z,45.83
2022-07-29T21:15:16.332Z,46.07
2022-07-29T21:17:47.191Z,46.13
2022-07-29T21:20:15.592Z,46.26
2022-07-29T21:22:43.690Z,46.77
2022-07-29T21:25:11.490Z,46.90
2022-07-29T21:27:57.122Z,47.30
2022-07-29T21:30:24.530Z,47.48
2022-07-29T21:32:51.682Z,48.05
2022-07-29T21:36:02.136Z,48.02
2022-07-29T21:38:06.164Z,48.70
2022-07-29T21:40:33.220Z,48.89
2022-07-29T21:43:00.297Z,49.04
2022-07-29T21:45:27.751Z,50.07
2022-07-29T21:47:54.851Z,49.56
2022-07-29T21:50:21.948Z,49.69
2022-07-29T21:52:49.349Z,50.13
2022-07-29T21:55:16.421Z,50.26
2022-07-29T21:57:46.391Z,50.49
2022-07-29T22:00:16.751Z,51.07
2022-07-29T22:02:44.739Z,51.18
2022-07-29T22:05:12.355Z,51.33
2022-07-29T22:07:56.541Z,51.55
2022-07-29T22:10:26.046Z,51.96
2022-07-29T22:12:54.164Z,52.08
2022-07-29T22:15:21.611Z,52.31
2022-07-29T22:17:49.085Z,52.51
2022-07-29T22:20:16.266Z,52.98
2022-07-29T22:22:43.316Z,53.03
2022-07-29T22:25:11.187Z,53.25
2022-07-29T22:27:38.863Z,53.68
2022-07-29T22:30:07.657Z,54.12
2022-07-29T22:32:35.165Z,54.43
2022-07-29T22:35:02.250Z,54.70
2022-07-29T22:37:29.365Z,55.09
2022-07-29T22:39:56.834Z,56.09
2022-07-29T22:42:24.142Z,54.94
2022-07-29T22:44:51.489Z,56.01
2022-07-29T22:47:18.871Z,55.82
2022-07-29T22:50:06.655Z,56.27
2022-07-29T22:52:34.031Z,56.30
2022-07-29T22:55:01.123Z,57.62
2022-07-29T22:57:28.380Z,58.17
2022-07-29T22:59:55.749Z,57.23
2022-07-29T23:02:22.817Z,57.48
2022-07-29T23:04:49.887Z,57.56
2022-07-29T23:07:17.722Z,58.15
2022-07-29T23:09:44.855Z,57.97
2022-07-29T23:12:11.914Z,58.39
2022-07-29T23:14:39.409Z,58.63
2022-07-29T23:17:06.628Z,59.06
2022-07-29T23:19:33.801Z,58.95
2022-07-29T23:22:01.179Z,59.56
2022-07-29T23:24:28.282Z,59.31
2022-07-29T23:26:55.430Z,59.68
2022-07-29T23:29:22.830Z,59.99
2022-07-29T23:31:49.953Z,60.68
2022-07-29T23:34:17.135Z,60.93
2022-07-29T23:36:44.499Z,62.13
2022-07-29T23:39:12.317Z,61.18
2022-07-29T23:41:39.591Z,61.80
2022-07-29T23:44:07.294Z,60.91
2022-07-29T23:46:34.462Z,61.96
2022-07-29T23:49:01.652Z,61.60
2022-07-29T23:51:29.246Z,61.63
2022-07-29T23:53:56.568Z,61.52
2022-07-29T23:56:23.897Z,61.87
2022-07-29T23:58:51.328Z,62.28
